Time;durP1;ratioP1;P1;durP2;ratioP2;P2;SDS_P1;SDS_P2;PMS_P1;PMS_P2;Temp;Humidity;BMP_temperature;BMP_pressure;BME280_temperature;BME280_humidity;BME280_pressure;Samples;Min_cycle;Max_cycle;Signal;HPM_P1;HPM_P2
2021/01/24 00:00:11;;;;;;;5.72;3.20;;;6.30;88.00;;;6.47;73.05;98092.00;4986760;28;20680;-88
2021/01/24 00:02:42;;;;;;;6.50;3.15;;;6.30;88.50;;;6.47;73.19;98081.19;4987129;28;20062;-88
2021/01/24 00:05:09;;;;;;;6.38;3.30;;;6.60;88.90;;;6.45;72.77;98081.44;4988188;28;20050;-88
2021/01/24 00:07:36;;;;;;;4.85;2.90;;;6.30;88.70;;;6.38;73.10;98090.63;4986930;28;20062;-88
2021/01/24 00:10:05;;;;;;;5.93;3.17;;;6.30;88.60;;;6.39;73.70;98089.56;4986677;28;20066;-88
2021/01/24 00:12:31;;;;;;;5.95;3.35;;;6.30;88.70;;;6.36;73.61;98080.03;4986844;28;20571;-88
2021/01/24 00:14:59;;;;;;;5.75;3.35;;;6.30;88.80;;;6.34;73.91;98081.28;4986962;28;20050;-87
2021/01/24 00:17:26;;;;;;;7.43;3.10;;;6.30;88.90;;;6.33;73.95;98090.44;4986808;28;20100;-88
2021/01/24 00:19:55;;;;;;;4.55;2.97;;;6.30;88.90;;;6.36;73.16;98088.13;4987999;28;20096;-88
2021/01/24 00:22:22;;;;;;;5.72;3.08;;;6.30;88.70;;;6.40;73.88;98085.84;4988966;28;20174;-88
2021/01/24 00:24:48;;;;;;;5.18;3.20;;;6.30;88.70;;;6.42;73.76;98083.75;4990863;28;20096;-88
2021/01/24 00:27:17;;;;;;;4.07;2.42;;;6.30;89.10;;;6.44;73.40;98081.66;4991896;28;20121;-87
2021/01/24 00:29:44;;;;;;;4.53;2.60;;;6.20;88.80;;;6.41;73.42;98087.47;4990776;28;20061;-88
2021/01/24 00:32:12;;;;;;;3.70;2.05;;;6.20;88.70;;;6.38;73.42;98085.22;4990504;28;20316;-89
2021/01/24 00:34:40;;;;;;;4.75;2.40;;;6.10;89.00;;;6.37;73.68;98078.16;4990579;28;20531;-88
2021/01/24 00:37:07;;;;;;;3.83;2.20;;;6.10;89.20;;;6.36;73.67;98073.78;4976358;28;20595;-88
2021/01/24 00:39:34;;;;;;;4.50;2.33;;;6.10;89.40;;;6.31;73.60;98081.72;4970881;28;20105;-87
2021/01/24 00:42:01;;;;;;;5.25;2.50;;;6.00;89.40;;;6.31;73.26;98082.56;4972283;28;20047;-88
2021/01/24 00:44:30;;;;;;;5.38;2.38;;;6.00;89.00;;;6.32;73.44;98080.66;4970983;28;20051;-88
2021/01/24 00:46:57;;;;;;;4.20;2.33;;;6.00;89.10;;;6.26;73.49;98080.53;4970794;28;20544;-90
2021/01/24 00:49:25;;;;;;;4.72;2.42;;;5.80;89.70;;;6.28;73.58;98082.16;4970982;28;20460;-89
2021/01/24 00:51:52;;;;;;;4.90;2.20;;;5.80;90.10;;;6.24;73.76;98077.22;4972393;28;20141;-89
2021/01/24 00:54:21;;;;;;;7.75;2.60;;;5.80;90.20;;;6.21;73.92;98077.63;4971355;28;20062;-90
2021/01/24 00:56:48;;;;;;;4.55;2.45;;;5.80;90.20;;;6.19;74.25;98079.72;4970999;28;20097;-90
2021/01/24 00:59:15;;;;;;;4.70;2.40;;;6.00;90.80;;;6.19;73.94;98082.41;4972370;28;20452;-89
2021/01/24 01:01:41;;;;;;;4.57;2.30;;;5.70;90.50;;;6.16;73.89;98080.16;4971039;28;20137;-90
2021/01/24 01:04:08;;;;;;;4.13;2.30;;;5.70;90.70;;;6.15;74.37;98075.81;4971129;28;20689;-90
2021/01/24 01:06:36;;;;;;;4.38;1.88;;;5.70;90.90;;;6.14;74.24;98084.94;4973531;28;20050;-89
2021/01/24 01:09:03;;;;;;;4.03;2.10;;;5.60;90.50;;;6.16;73.89;98087.44;4971897;28;20054;-89
2021/01/24 01:11:30;;;;;;;4.75;2.00;;;5.60;91.00;;;6.01;73.47;98080.41;4980269;28;20096;-90
2021/01/24 01:13:57;;;;;;;5.05;2.33;;;5.60;90.80;;;5.98;74.25;98082.75;4991202;28;20644;-89
2021/01/24 01:16:24;;;;;;;4.10;2.15;;;5.60;91.00;;;5.89;74.44;98095.63;4989769;28;20077;-89
2021/01/24 01:18:51;;;;;;;3.47;1.77;;;5.60;90.90;;;5.96;73.87;98095.59;4991256;28;20057;-89
2021/01/24 01:21:18;;;;;;;2.97;1.70;;;5.60;90.20;;;5.90;73.97;98093.75;4991346;28;20050;-89
2021/01/24 01:23:45;;;;;;;4.32;2.00;;;5.50;90.40;;;5.88;73.31;98099.34;4991289;28;20579;-90
2021/01/24 01:26:15;;;;;;;3.35;1.85;;;5.40;90.40;;;5.85;73.57;98103.31;4989875;28;20050;-90
2021/01/24 01:28:42;;;;;;;3.25;1.80;;;5.30;90.40;;;5.86;72.71;98102.28;4990257;28;20034;-89
2021/01/24 01:31:09;;;;;;;3.58;1.85;;;5.30;90.10;;;5.85;72.02;98095.22;4982484;28;20050;-89
2021/01/24 01:33:36;;;;;;;4.25;2.10;;;5.20;89.40;;;5.79;71.95;98112.28;4969582;28;20566;-89
2021/01/24 01:36:03;;;;;;;3.38;1.80;;;5.10;89.70;;;5.83;72.62;98112.69;4981507;28;20054;-89
2021/01/24 01:38:30;;;;;;;3.17;1.58;;;5.10;90.00;;;5.80;71.25;98107.69;4989311;28;20054;-89
2021/01/24 01:40:58;;;;;;;2.88;1.40;;;5.00;89.20;;;5.67;70.75;98111.25;4989928;28;20066;-89
2021/01/24 01:43:25;;;;;;;3.03;1.60;;;4.90;89.00;;;5.65;71.26;98116.03;4990863;28;20526;-89
2021/01/24 01:45:54;;;;;;;3.33;1.70;;;4.80;89.20;;;5.55;70.90;98113.78;4989239;28;20053;-89
2021/01/24 01:48:21;;;;;;;4.18;1.80;;;4.80;89.40;;;5.38;71.33;98116.09;4989407;28;20074;-90
2021/01/24 01:50:47;;;;;;;3.00;1.58;;;4.70;89.40;;;5.29;71.35;98125.44;4989582;28;20061;-89
2021/01/24 01:53:15;;;;;;;3.50;1.80;;;4.70;89.80;;;5.26;71.92;98117.81;4989644;28;20054;-89
2021/01/24 01:55:41;;;;;;;3.20;1.55;;;4.70;89.90;;;5.27;71.96;98124.84;4991078;28;20077;-90
2021/01/24 01:58:09;;;;;;;3.30;1.90;;;4.60;89.90;;;5.22;71.52;98111.19;4990919;28;20058;-90
2021/01/24 02:00:36;;;;;;;3.33;1.70;;;4.60;89.90;;;5.21;71.73;98114.91;4987913;28;20069;-89
2021/01/24 02:03:32;;;;;;;7.97;2.13;;;4.70;90.10;;;5.20;71.77;98118.66;4970305;28;20598;-89
2021/01/24 02:06:11;;;;;;;3.30;1.83;;;4.50;90.10;;;5.18;71.70;98120.69;4970127;28;20042;-89
2021/01/24 02:08:46;;;;;;;3.60;1.98;;;4.40;90.10;;;5.07;72.21;98114.91;4970315;28;20074;-90
2021/01/24 02:11:23;;;;;;;3.85;2.10;;;4.40;90.20;;;5.07;72.13;98119.47;4969978;28;20062;-89
2021/01/24 02:14:05;;;;;;;4.22;2.10;;;4.40;90.20;;;5.05;72.11;98116.97;4982409;28;20058;-89
2021/01/24 02:16:34;;;;;;;3.38;1.80;;;4.20;90.20;;;4.96;72.18;98123.63;4991180;28;20491;-88
2021/01/24 02:19:04;;;;;;;3.92;2.35;;;4.30;90.40;;;4.87;72.20;98124.84;4989381;28;20081;-89
2021/01/24 02:21:35;;;;;;;4.07;2.20;;;4.20;90.50;;;4.79;72.45;98122.38;4989812;28;20120;-89
2021/01/24 02:24:06;;;;;;;4.93;2.80;;;4.20;90.40;;;4.80;72.39;98121.34;4989157;28;20522;-89
2021/01/24 02:26:43;;;;;;;5.68;3.42;;;4.20;90.50;;;4.86;72.73;98134.00;4988720;28;20097;-89
2021/01/24 02:29:21;;;;;;;5.90;3.78;;;4.20;90.70;;;4.94;72.48;98136.47;4990399;28;20054;-89
2021/01/24 02:31:52;;;;;;;5.85;3.42;;;4.20;90.70;;;5.05;71.59;98137.72;4988743;28;20050;-89
2021/01/24 02:34:24;;;;;;;5.60;3.55;;;4.20;90.70;;;5.10;71.45;98137.91;4980520;28;20047;-89
2021/01/24 02:36:52;;;;;;;6.65;4.10;;;4.10;91.00;;;4.93;71.84;98144.75;4987065;28;20492;-89
2021/01/24 02:39:20;;;;;;;7.47;4.47;;;4.10;91.10;;;4.88;72.71;98148.09;4990677;28;20046;-90
2021/01/24 02:41:47;;;;;;;8.02;4.35;;;4.10;91.10;;;4.88;72.12;98145.41;4989290;28;20562;-89
2021/01/24 02:44:14;;;;;;;7.07;4.47;;;4.10;91.10;;;4.70;72.59;98149.53;4988053;28;20050;-89
2021/01/24 02:46:42;;;;;;;6.03;4.03;;;4.00;91.00;;;4.71;72.83;98161.13;4990290;28;20081;-87
2021/01/24 02:49:12;;;;;;;7.47;4.60;;;4.00;91.20;;;4.68;72.38;98162.38;4988932;28;20062;-89
2021/01/24 02:51:40;;;;;;;7.32;4.72;;;4.00;91.20;;;4.70;72.85;98162.16;4989024;28;20046;-89
2021/01/24 02:54:09;;;;;;;8.38;4.82;;;4.00;91.30;;;4.73;72.62;98169.00;4981830;28;20137;-88
2021/01/24 02:56:36;;;;;;;8.02;5.30;;;4.00;91.20;;;4.71;72.56;98166.50;4980312;28;20534;-89
2021/01/24 02:59:04;;;;;;;7.90;5.03;;;4.10;91.40;;;4.64;72.55;98169.19;4989978;28;20563;-89
2021/01/24 03:01:31;;;;;;;9.98;5.88;;;4.00;91.40;;;4.66;73.05;98172.53;4988682;28;20050;-89
2021/01/24 03:03:57;;;;;;;8.80;6.15;;;4.00;91.60;;;4.62;73.18;98168.56;4988731;28;20100;-91
2021/01/24 03:06:25;;;;;;;9.85;6.55;;;4.00;91.30;;;4.64;72.82;98174.56;4988759;28;20093;-92
2021/01/24 03:08:52;;;;;;;10.35;6.55;;;4.00;91.30;;;4.54;73.40;98174.16;4989068;28;20046;-91
2021/01/24 03:11:22;;;;;;;10.35;6.65;;;4.00;91.30;;;4.50;73.60;98175.59;4989045;28;20104;-89
2021/01/24 03:13:56;;;;;;;11.20;7.60;;;4.00;91.20;;;4.65;73.34;98178.13;4988871;28;20810;-88
2021/01/24 03:16:24;;;;;;;11.45;8.15;;;4.00;91.50;;;4.55;73.48;98183.03;4988744;28;20069;-89
2021/01/24 03:18:53;;;;;;;14.35;9.25;;;4.00;91.20;;;4.54;73.45;98189.47;4989169;28;20183;-89
2021/01/24 03:21:21;;;;;;;13.93;8.90;;;4.00;91.40;;;4.48;73.40;98189.25;4988564;28;20140;-89
2021/01/24 03:23:51;;;;;;;15.82;10.52;;;4.00;91.30;;;4.49;73.60;98198.16;4990033;28;20534;-89
2021/01/24 03:26:17;;;;;;;15.52;10.18;;;4.00;91.60;;;4.39;73.50;98192.34;4987904;28;20054;-88
2021/01/24 03:28:45;;;;;;;16.77;10.95;;;4.00;91.20;;;4.46;73.91;98204.78;4987844;28;20074;-89
2021/01/24 03:31:11;;;;;;;16.75;11.70;;;4.00;91.30;;;4.45;73.79;98207.69;4987937;28;20078;-89
2021/01/24 03:33:40;;;;;;;18.13;12.07;;;4.00;91.30;;;4.54;73.58;98211.03;4987976;28;20054;-88
2021/01/24 03:36:07;;;;;;;18.23;12.55;;;4.00;91.20;;;4.47;73.40;98216.38;4987287;28;20154;-90
2021/01/24 03:38:34;;;;;;;16.25;12.30;;;4.00;91.30;;;4.47;73.62;98213.69;4987223;28;20069;-89
2021/01/24 03:41:02;;;;;;;17.10;11.68;;;3.90;91.50;;;4.44;73.25;98223.00;5003872;28;20050;-87
2021/01/24 03:43:29;;;;;;;15.43;11.38;;;3.90;91.30;;;4.43;73.56;98218.66;4987346;28;20108;-88
2021/01/24 03:45:56;;;;;;;16.50;11.45;;;3.90;91.50;;;4.44;73.79;98224.88;4987061;28;20061;-88
2021/01/24 03:48:22;;;;;;;14.00;10.77;;;3.90;91.80;;;4.49;73.25;98231.31;4988645;28;20046;-88
2021/01/24 03:50:49;;;;;;;13.35;10.05;;;3.90;91.50;;;4.45;73.70;98223.84;4987272;28;20069;-88
2021/01/24 03:53:16;;;;;;;13.55;10.13;;;3.90;91.50;;;4.51;73.55;98231.09;4987268;28;20046;-89
2021/01/24 03:55:43;;;;;;;11.50;8.45;;;3.90;91.50;;;4.41;73.29;98241.44;4979078;28;20050;-88
2021/01/24 03:58:11;;;;;;;10.75;7.85;;;3.90;91.30;;;4.52;73.50;98240.03;4969144;28;20085;-90
2021/01/24 04:00:38;;;;;;;11.15;8.23;;;3.90;91.40;;;4.51;73.49;98249.94;4985770;28;20061;-91
2021/01/24 04:03:05;;;;;;;9.90;7.70;;;4.10;91.40;;;4.57;73.59;98249.16;4987185;28;20101;-88
2021/01/24 04:05:31;;;;;;;10.63;7.40;;;3.90;91.40;;;4.66;73.44;98256.03;4987287;28;20355;-89
2021/01/24 04:08:00;;;;;;;9.77;7.07;;;3.90;91.40;;;4.58;72.85;98253.50;4987203;28;20038;-92
2021/01/24 04:10:27;;;;;;;8.85;6.25;;;3.90;91.30;;;4.62;72.95;98257.47;4989109;28;20069;-88
2021/01/24 04:12:54;;;;;;;8.90;5.97;;;3.90;91.60;;;4.56;73.01;98258.28;4987606;28;20511;-88
2021/01/24 04:15:22;;;;;;;9.30;6.10;;;3.90;91.40;;;4.60;72.64;98256.81;4987977;28;20054;-88
2021/01/24 04:17:48;;;;;;;8.85;6.00;;;4.00;91.40;;;4.65;72.83;98259.75;4968926;28;20051;-88
2021/01/24 04:20:16;;;;;;;7.82;5.47;;;3.90;91.40;;;4.67;72.50;98264.94;4967510;28;20058;-90
2021/01/24 04:22:43;;;;;;;7.47;5.20;;;3.90;91.30;;;4.59;72.39;98278.56;4967736;28;20054;-89
2021/01/24 04:25:12;;;;;;;8.32;5.70;;;3.90;91.30;;;4.45;73.26;98275.81;4969079;28;20062;-89
2021/01/24 04:27:39;;;;;;;7.88;5.20;;;3.90;91.20;;;4.50;73.25;98269.84;4967905;28;20105;-88
2021/01/24 04:30:08;;;;;;;7.07;4.75;;;3.90;91.20;;;4.57;73.06;98280.66;4967887;28;20508;-88
2021/01/24 04:32:35;;;;;;;7.20;4.70;;;3.90;91.60;;;4.64;72.79;98276.94;4968244;28;20057;-90
2021/01/24 04:35:03;;;;;;;6.47;4.40;;;3.90;91.40;;;4.49;73.30;98289.72;4969635;28;20055;-88
2021/01/24 04:37:29;;;;;;;6.32;4.15;;;3.90;91.20;;;4.51;73.15;98287.66;4969788;28;20122;-88
2021/01/24 04:39:56;;;;;;;5.65;3.72;;;3.90;91.40;;;4.54;73.02;98292.66;4969644;28;20043;-89
2021/01/24 04:42:23;;;;;;;5.72;3.58;;;3.90;91.60;;;4.48;73.07;98293.47;4968708;28;20420;-91
2021/01/24 04:44:51;;;;;;;5.38;3.42;;;3.90;91.50;;;4.55;73.29;98296.19;4969355;28;20051;-91
2021/01/24 04:47:22;;;;;;;5.43;3.40;;;3.90;91.50;;;4.49;73.34;98295.13;4987690;28;20050;-91
2021/01/24 04:49:50;;;;;;;6.00;3.05;;;3.90;91.70;;;4.52;73.05;98301.97;4989181;28;20042;-88
2021/01/24 04:52:17;;;;;;;4.78;3.03;;;3.90;91.70;;;4.55;73.47;98315.03;5003894;28;20046;-91
2021/01/24 04:54:45;;;;;;;4.28;2.47;;;3.90;91.60;;;4.62;72.85;98310.50;4988154;28;20091;-91
2021/01/24 04:57:12;;;;;;;3.85;2.38;;;3.90;91.70;;;4.59;73.23;98316.28;4986764;28;20070;-91
2021/01/24 04:59:39;;;;;;;3.83;2.38;;;3.80;91.60;;;4.50;72.87;98312.94;4986961;28;20054;-89
2021/01/24 05:02:11;;;;;;;4.00;2.20;;;3.80;91.60;;;4.47;72.97;98324.13;4986987;28;20141;-91
2021/01/24 05:04:40;;;;;;;3.28;1.98;;;3.80;91.70;;;4.50;73.44;98324.53;4987309;28;20050;-90
2021/01/24 05:07:08;;;;;;;2.92;1.60;;;3.90;91.80;;;4.56;73.38;98322.91;4968360;28;20828;-90
2021/01/24 05:09:35;;;;;;;4.47;2.20;;;3.80;91.70;;;4.58;73.29;98330.81;4972514;28;20077;-88
2021/01/24 05:12:01;;;;;;;3.42;1.77;;;3.80;91.80;;;4.59;72.75;98336.00;4972856;28;20050;-90
2021/01/24 05:14:28;;;;;;;2.67;1.50;;;3.80;91.70;;;4.60;72.89;98337.66;4971437;28;20062;-90
2021/01/24 05:16:57;;;;;;;2.35;1.27;;;3.80;91.90;;;4.56;73.12;98343.66;4985298;28;20046;-91
2021/01/24 05:19:25;;;;;;;2.67;1.23;;;3.80;91.90;;;4.55;72.79;98341.97;4991613;28;22328;-88
2021/01/24 05:21:52;;;;;;;3.95;1.45;;;3.80;91.80;;;4.50;73.07;98351.47;4988380;28;20554;-89
2021/01/24 05:24:21;;;;;;;2.60;1.20;;;3.80;91.90;;;4.55;73.25;98356.28;4970144;28;20046;-88
2021/01/24 05:26:51;;;;;;;3.03;1.38;;;3.80;92.00;;;4.50;73.30;98356.03;4989217;28;20121;-89
2021/01/24 05:29:23;;;;;;;2.58;1.40;;;3.80;92.10;;;4.54;72.83;98362.69;4991661;28;20163;-88
2021/01/24 05:31:52;;;;;;;2.67;1.38;;;3.80;92.00;;;4.54;72.90;98373.47;4989856;28;20046;-88
2021/01/24 05:34:23;;;;;;;3.28;1.67;;;3.90;91.80;;;4.43;72.70;98372.16;4990785;28;20203;-88
2021/01/24 05:36:50;;;;;;;;;;;3.80;91.80;;;4.39;73.88;98376.28;4990923;28;20057;-89
2021/01/24 05:39:17;;;;;;;2.80;1.50;;;3.80;91.90;;;4.43;73.31;98377.53;4990827;28;19965;-89
2021/01/24 05:41:50;;;;;;;2.88;1.60;;;3.80;91.70;;;4.45;73.21;98385.44;4989825;28;20081;-87
2021/01/24 05:44:18;;;;;;;3.13;1.55;;;3.80;91.90;;;4.52;73.30;98380.09;4989659;28;20117;-88
2021/01/24 05:46:46;;;;;;;3.40;1.80;;;3.80;92.00;;;4.46;73.25;98381.72;4989210;28;20085;-87
2021/01/24 05:49:20;;;;;;;4.75;1.90;;;3.80;91.90;;;4.49;73.08;98398.31;4988950;28;20098;-86
2021/01/24 05:52:01;;;;;;;3.22;1.67;;;3.80;92.10;;;4.48;72.92;98398.50;4989131;28;20504;-86
2021/01/24 05:54:39;;;;;;;3.97;2.25;;;3.80;92.10;;;4.42;73.19;98412.78;4988818;28;20050;-86
2021/01/24 05:57:08;;;;;;;4.40;2.28;;;3.70;91.90;;;4.42;73.34;98418.16;4988296;28;20050;-85
2021/01/24 05:59:55;;;;;;;4.72;2.53;;;3.80;91.80;;;4.41;73.41;98427.25;4988624;28;20101;-86
2021/01/24 06:02:24;;;;;;;4.78;2.60;;;3.80;91.90;;;4.39;73.20;98424.75;4968329;28;20596;-85
2021/01/24 06:04:51;;;;;;;4.70;2.63;;;3.80;91.90;;;4.47;73.47;98437.22;4970448;28;20082;-85
2021/01/24 06:07:19;;;;;;;4.50;2.50;;;3.80;92.00;;;4.50;73.00;98439.53;4988228;28;20058;-86
2021/01/24 06:09:46;;;;;;;4.93;2.80;;;3.70;91.80;;;4.50;73.25;98442.25;4990254;28;20042;-86
2021/01/24 06:12:16;;;;;;;5.35;2.47;;;3.80;91.90;;;4.50;72.80;98443.06;4988404;28;20603;-86
2021/01/24 06:14:48;;;;;;;4.80;2.78;;;3.70;92.00;;;4.52;72.94;98447.44;4989878;28;20137;-85
2021/01/24 06:17:25;;;;;;;5.18;2.75;;;3.70;91.90;;;4.42;73.01;98445.91;4988185;28;20492;-86
2021/01/24 06:20:00;;;;;;;5.18;3.03;;;3.80;92.00;;;4.42;73.13;98448.59;4989708;28;20046;-86
2021/01/24 06:22:45;;;;;;;5.53;3.10;;;3.70;92.20;;;4.43;73.88;98454.81;4989209;28;20078;-85
2021/01/24 06:25:18;;;;;;;6.15;3.60;;;3.70;92.20;;;4.45;73.47;98466.22;4989591;28;20047;-85
2021/01/24 06:27:52;;;;;;;6.63;3.15;;;3.70;92.20;;;4.45;73.37;98474.31;4987394;28;20092;-86
2021/01/24 06:30:23;;;;;;;6.70;3.65;;;3.70;92.30;;;4.49;73.61;98475.56;4949969;28;20197;-87
2021/01/24 06:32:50;;;;;;;6.82;3.75;;;3.70;92.40;;;4.41;73.35;98489.19;4964764;28;20448;-86
2021/01/24 06:35:21;;;;;;;8.07;3.70;;;3.70;92.40;;;4.42;73.73;98482.78;4968087;28;20106;-87
2021/01/24 06:38:00;;;;;;;8.52;3.95;;;3.70;92.40;;;4.41;73.74;98502.66;4987865;28;20054;-87
2021/01/24 06:40:32;;;;;;;6.35;3.53;;;3.70;92.50;;;4.44;73.20;98495.03;4987245;28;20420;-86
2021/01/24 06:43:04;;;;;;;6.20;3.30;;;3.70;92.50;;;4.40;73.48;98501.84;4989474;28;20464;-85
2021/01/24 06:45:44;;;;;;;7.53;3.40;;;3.70;92.50;;;4.41;73.76;98508.03;4987656;28;20046;-87
2021/01/24 06:48:16;;;;;;;6.75;3.58;;;3.70;92.60;;;4.41;73.49;98516.13;4989196;28;20057;-87
2021/01/24 06:50:45;;;;;;;6.80;3.78;;;3.70;92.60;;;4.44;73.43;98523.81;4987915;28;20082;-86
2021/01/24 06:53:14;;;;;;;7.93;4.10;;;3.70;92.60;;;4.41;73.95;98525.03;4982391;28;20086;-87
2021/01/24 06:55:58;;;;;;;7.93;4.45;;;3.70;92.40;;;4.40;73.83;98539.53;4970787;28;20104;-86
2021/01/24 06:58:31;;;;;;;8.88;4.30;;;3.70;92.30;;;4.49;73.47;98542.91;4987816;28;20659;-86
2021/01/24 07:01:24;;;;;;;10.05;5.28;;;3.70;92.60;;;4.43;73.71;98546.38;4989124;28;20039;-86
2021/01/24 07:04:40;;;;;;;12.75;5.93;;;3.70;92.70;;;4.37;73.54;98555.25;4987765;28;20584;-86
2021/01/24 07:07:38;;;;;;;12.60;6.72;;;3.70;92.50;;;4.28;74.32;98563.47;4987244;28;20077;-86
2021/01/24 07:10:11;;;;;;;11.38;6.38;;;3.70;92.50;;;4.35;74.13;98563.50;4912561;29;20094;-85
2021/01/24 07:12:45;;;;;;;12.02;6.88;;;3.80;92.70;;;4.34;74.18;98569.09;4973234;28;20074;-86
2021/01/24 07:15:22;;;;;;;12.45;7.43;;;3.80;92.50;;;4.37;73.76;98576.78;4987565;28;20096;-85
2021/01/24 07:18:00;;;;;;;15.57;9.02;;;3.80;92.60;;;4.36;74.28;98575.97;4987500;28;20050;-86
2021/01/24 07:20:27;;;;;;;16.77;9.80;;;3.80;92.70;;;4.40;73.84;98587.16;4988590;28;20563;-87
2021/01/24 07:22:55;;;;;;;20.02;11.45;;;3.90;92.90;;;4.36;74.03;98586.72;4988674;28;20085;-87
2021/01/24 07:25:23;;;;;;;20.85;11.75;;;3.80;92.50;;;4.40;74.05;98597.94;4986580;28;20801;-85
2021/01/24 07:27:54;;;;;;;24.77;13.55;;;3.80;92.40;;;4.41;73.86;98599.63;4987218;28;20093;-87
2021/01/24 07:30:26;;;;;;;25.17;13.10;;;3.80;92.70;;;4.33;74.16;98608.66;4988138;28;20093;-87
2021/01/24 07:32:54;;;;;;;25.55;14.13;;;3.80;92.60;;;4.38;73.87;98608.91;4988697;28;20097;-88
2021/01/24 07:35:21;;;;;;;25.92;14.75;;;3.80;92.60;;;4.44;74.13;98621.63;4986723;28;20079;-88
2021/01/24 07:37:52;;;;;;;25.58;14.13;;;3.80;92.60;;;4.37;74.24;98619.88;4988566;28;20085;-87
2021/01/24 07:40:22;;;;;;;27.33;14.63;;;3.80;92.60;;;4.35;74.23;98628.16;4987220;28;20054;-86
2021/01/24 07:42:49;;;;;;;26.98;15.45;;;3.80;92.70;;;4.31;74.01;98632.25;4988399;28;20622;-86
2021/01/24 07:45:17;;;;;;;28.85;16.15;;;3.80;92.40;;;4.31;74.82;98633.06;4986951;28;20045;-85
2021/01/24 07:47:45;;;;;;;29.17;16.75;;;3.90;92.70;;;4.37;74.24;98646.81;4986912;28;20054;-86
2021/01/24 07:50:13;;;;;;;28.77;16.77;;;3.80;92.70;;;4.34;74.75;98648.03;4990991;28;20034;-88
2021/01/24 07:52:40;;;;;;;30.90;16.50;;;3.80;92.60;;;4.41;74.42;98653.47;5006763;28;20046;-85
2021/01/24 07:55:10;;;;;;;29.17;15.45;;;3.80;92.70;;;4.43;74.57;98664.88;4983758;28;20051;-84
2021/01/24 07:57:37;;;;;;;28.95;15.70;;;3.80;92.90;;;4.40;74.42;98662.56;4969208;28;20051;-85
2021/01/24 08:00:06;;;;;;;34.10;16.98;;;3.90;92.70;;;4.39;74.72;98663.59;4969194;28;20051;-84
2021/01/24 08:02:39;;;;;;;33.47;16.92;;;3.80;92.70;;;4.39;74.50;98672.50;4968825;28;20046;-84
2021/01/24 08:05:09;;;;;;;31.20;16.58;;;3.80;92.90;;;4.37;74.63;98673.75;4969288;28;20062;-86
2021/01/24 08:07:37;;;;;;;33.65;17.60;;;3.80;93.10;;;4.36;75.14;98672.06;4966844;28;20054;-85
2021/01/24 08:10:06;;;;;;;32.97;17.38;;;3.80;93.20;;;4.40;74.97;98692.19;4968674;28;20113;-86
2021/01/24 08:12:33;;;;;;;34.05;18.70;;;3.80;93.00;;;4.44;74.67;98680.03;4967710;28;20051;-86
2021/01/24 08:15:00;;;;;;;31.45;17.15;;;3.90;93.20;;;4.40;74.90;98690.34;4968715;28;20477;-85
2021/01/24 08:17:28;;;;;;;33.88;18.40;;;3.90;93.30;;;4.40;75.28;98689.50;4967410;28;20058;-86
2021/01/24 08:19:56;;;;;;;36.70;18.85;;;3.90;93.30;;;4.37;75.32;98696.09;4986146;28;20054;-86
2021/01/24 08:22:25;;;;;;;37.47;20.35;;;3.90;93.20;;;4.36;75.10;98701.69;4970383;28;20066;-85
2021/01/24 08:24:55;;;;;;;;;;;3.90;93.10;;;4.43;75.30;98706.13;4968678;28;20475;-84
2021/01/24 08:27:24;;;;;;;37.85;19.88;;;3.90;93.40;;;4.35;75.37;98700.03;4969256;28;19966;-84
2021/01/24 08:29:50;;;;;;;46.58;22.58;;;3.90;93.10;;;4.37;75.65;98709.56;4969321;28;20600;-85
2021/01/24 08:32:18;;;;;;;50.92;23.15;;;3.90;93.30;;;4.37;75.66;98711.44;4970886;28;20046;-84
2021/01/24 08:34:46;;;;;;;45.00;22.75;;;3.90;93.40;;;4.31;75.67;98713.03;4969807;28;20051;-85
2021/01/24 08:37:12;;;;;;;54.67;26.10;;;3.90;93.40;;;4.26;75.91;98715.44;4969752;28;20043;-83
2021/01/24 08:39:40;;;;;;;58.03;26.52;;;3.90;93.20;;;4.31;75.89;98719.25;4970621;28;20393;-84
2021/01/24 08:42:07;;;;;;;52.88;26.23;;;3.90;93.50;;;4.26;75.87;98718.97;4971847;28;20050;-84
2021/01/24 08:44:34;;;;;;;52.08;25.33;;;3.90;93.40;;;4.25;75.61;98725.38;4972696;28;20120;-87
2021/01/24 08:47:06;;;;;;;56.70;25.38;;;3.90;93.30;;;4.19;75.90;98727.97;4972849;28;20097;-85
2021/01/24 08:49:34;;;;;;;50.85;25.45;;;3.90;93.30;;;4.13;76.55;98720.66;4973463;28;20050;-87
2021/01/24 08:52:02;;;;;;;62.83;26.77;;;3.90;93.40;;;4.13;77.29;98737.63;4972693;28;20050;-85
2021/01/24 08:54:31;;;;;;;51.00;25.42;;;3.90;93.60;;;4.16;76.62;98736.44;4973836;28;20141;-86
2021/01/24 08:57:12;;;;;;;51.35;24.67;;;3.90;93.50;;;4.13;76.96;98743.03;4970957;28;20059;-88
2021/01/24 08:59:39;;;;;;;49.90;25.27;;;3.90;93.50;;;4.17;76.74;98738.09;4988722;28;20136;-88
2021/01/24 09:02:06;;;;;;;54.40;25.75;;;3.90;93.50;;;4.23;76.97;98745.47;4994815;28;20320;-86
2021/01/24 09:04:35;;;;;;;56.78;26.23;;;3.90;93.70;;;4.31;77.04;98745.34;4991567;28;20054;-85
2021/01/24 09:07:09;;;;;;;51.78;25.98;;;3.90;93.90;;;4.45;76.82;98746.34;4996455;28;20047;-86
2021/01/24 09:09:43;;;;;;;51.03;25.20;;;3.90;94.00;;;4.51;76.72;98750.97;4996992;28;20077;-86
2021/01/24 09:12:15;;;;;;;52.85;24.70;;;4.00;94.00;;;4.43;76.45;98759.97;4998663;28;20499;-87
2021/01/24 09:14:42;;;;;;;50.58;24.52;;;4.00;94.00;;;4.38;76.86;98762.44;4994883;28;20070;-86
2021/01/24 09:17:12;;;;;;;55.45;23.05;;;4.00;93.80;;;4.41;76.52;98770.13;4993856;28;20057;-87
2021/01/24 09:19:42;;;;;;;46.45;21.73;;;4.10;93.90;;;4.35;76.51;98770.88;4998725;28;20070;-87
2021/01/24 09:22:11;;;;;;;42.53;22.23;;;4.10;93.70;;;4.33;76.27;98772.09;4993472;28;20419;-86
2021/01/24 09:24:39;;;;;;;45.22;20.25;;;4.00;93.50;;;4.36;76.96;98779.78;4996083;28;20042;-85
2021/01/24 09:27:09;;;;;;;35.53;18.50;;;4.20;93.70;;;4.36;76.52;98779.78;4982344;28;20058;-86
2021/01/24 09:29:40;;;;;;;40.50;18.75;;;4.00;93.70;;;4.45;76.41;98784.88;4995488;28;20055;-86
2021/01/24 09:32:08;;;;;;;30.63;16.63;;;4.00;93.90;;;4.44;76.21;98782.38;4988058;28;20060;-86
2021/01/24 09:34:36;;;;;;;33.55;16.73;;;4.20;93.60;;;4.44;76.25;98793.16;4994338;28;20057;-87
2021/01/24 09:37:03;;;;;;;32.90;17.50;;;4.10;93.60;;;4.38;76.74;98793.88;4992974;28;20034;-86
2021/01/24 09:39:30;;;;;;;36.15;18.27;;;4.10;93.80;;;4.35;76.92;98794.28;4993155;28;20061;-87
2021/01/24 09:41:57;;;;;;;36.70;18.40;;;4.10;93.70;;;4.42;76.78;98795.22;4994527;28;20511;-87
2021/01/24 09:44:25;;;;;;;40.60;19.52;;;4.10;93.80;;;4.40;77.01;98787.31;4990732;28;20073;-87
2021/01/24 09:46:53;;;;;;;38.15;18.83;;;4.10;93.90;;;4.35;76.69;98796.97;4992150;28;20046;-86
2021/01/24 09:49:20;;;;;;;38.20;21.00;;;4.30;94.10;;;4.37;76.74;98800.31;4996327;28;20146;-88
2021/01/24 09:51:47;;;;;;;33.78;18.80;;;4.10;94.00;;;4.39;76.62;98811.72;4991794;28;20535;-86
2021/01/24 09:54:15;;;;;;;36.30;19.83;;;4.10;93.70;;;4.35;76.87;98811.25;4976063;28;20042;-87
2021/01/24 09:56:41;;;;;;;37.67;20.52;;;4.10;93.90;;;4.39;77.10;98817.13;4973101;28;20054;-87
2021/01/24 09:59:08;;;;;;;43.65;22.95;;;4.10;94.20;;;4.46;76.87;98812.66;4973757;28;20055;-87
2021/01/24 10:01:36;;;;;;;37.65;20.27;;;4.10;94.30;;;4.42;76.78;98822.16;4976526;28;20059;-87
2021/01/24 10:04:05;;;;;;;36.75;19.77;;;4.10;94.10;;;4.40;76.40;98824.16;4977636;28;20050;-87
2021/01/24 10:06:33;;;;;;;39.40;21.10;;;4.10;94.10;;;4.37;76.90;98825.38;4971385;28;20802;-88
2021/01/24 10:08:59;;;;;;;33.58;19.38;;;4.10;94.20;;;4.35;76.71;98832.81;4971544;28;20054;-87
2021/01/24 10:11:26;;;;;;;37.88;19.27;;;4.10;93.90;;;4.33;76.77;98844.81;4972508;28;20109;-88
2021/01/24 10:13:54;;;;;;;35.15;19.02;;;4.10;94.00;;;4.40;76.87;98840.31;4973266;28;20035;-88
2021/01/24 10:16:20;;;;;;;32.45;19.02;;;4.10;94.10;;;4.35;77.06;98845.44;4973529;28;20047;-86
2021/01/24 10:18:47;;;;;;;31.73;18.15;;;4.10;93.90;;;4.34;76.92;98851.84;4969942;28;20055;-86
2021/01/24 10:21:15;;;;;;;34.15;19.17;;;4.10;93.80;;;4.28;77.11;98853.41;4985318;28;20062;-86
2021/01/24 10:23:42;;;;;;;31.85;16.80;;;4.10;93.90;;;4.34;77.09;98852.69;4970429;28;20038;-88
2021/01/24 10:26:09;;;;;;;31.23;17.50;;;4.30;94.20;;;4.41;76.55;98855.47;4970212;28;20169;-85
2021/01/24 10:28:36;;;;;;;27.88;16.98;;;4.10;93.90;;;4.37;76.71;98854.19;4968873;28;20933;-85
2021/01/24 10:31:05;;;;;;;31.75;17.75;;;4.10;93.80;;;4.39;76.51;98861.03;4971715;28;20547;-85
2021/01/24 10:33:32;;;;;;;30.25;16.35;;;4.10;93.80;;;4.37;76.57;98873.84;4970437;28;20157;-86
2021/01/24 10:35:59;;;;;;;32.72;17.52;;;4.10;93.80;;;4.39;76.77;98876.38;4968456;28;20579;-85